Time;durP1;ratioP1;P1;durP2;ratioP2;P2;SDS_P1;SDS_P2;PMS_P1;PMS_P2;Temp;Humidity;BMP_temperature;BMP_pressure;BME280_temperature;BME280_humidity;BME280_pressure;Samples;Min_cycle;Max_cycle;Signal;HPM_P1;HPM_P2
2022/01/19 00:01:47;;;;;;;12.63;5.33;;;;;;;-3.65;75.86;99102.88;1711534;83;21486;-75
2022/01/19 00:04:14;;;;;;;12.98;5.62;;;;;;;-3.67;75.63;99113.99;1671871;86;21040;-75
2022/01/19 00:06:40;;;;;;;10.10;5.58;;;;;;;-3.67;75.90;99129.14;1672084;86;21053;-75
2022/01/19 00:09:07;;;;;;;15.95;6.87;;;;;;;-3.69;75.71;99133.78;1700596;84;21017;-75
2022/01/19 00:11:33;;;;;;;14.18;5.87;;;;;;;-3.67;75.69;99132.13;1698350;84;21480;-75
2022/01/19 00:14:00;;;;;;;13.58;5.80;;;;;;;-3.67;75.68;99136.02;1696434;85;21062;-75
2022/01/19 00:16:26;;;;;;;15.10;6.33;;;;;;;-3.65;75.95;99133.11;1696454;85;21002;-75
2022/01/19 00:18:53;;;;;;;14.63;6.08;;;;;;;-3.65;75.85;99139.16;1696182;85;21030;-75
2022/01/19 00:21:19;;;;;;;11.05;5.53;;;;;;;-3.66;76.15;99136.09;1706489;83;21367;-74
2022/01/19 00:23:48;;;;;;;15.38;6.37;;;;;;;-3.67;76.19;99143.80;1672228;86;21032;-75
2022/01/19 00:26:14;;;;;;;13.48;5.20;;;;;;;-3.65;76.16;99140.88;1671832;86;21501;-74
2022/01/19 00:28:40;;;;;;;14.75;5.95;;;;;;;-3.69;76.27;99126.91;1700287;84;21073;-74
2022/01/19 00:31:07;;;;;;;11.00;6.03;;;;;;;-3.67;75.94;99129.54;1702807;84;21050;-74
2022/01/19 00:33:34;;;;;;;14.28;5.87;;;;;;;-3.72;75.69;99144.49;1696202;84;21030;-74
2022/01/19 00:36:01;;;;;;;12.35;6.05;;;;;;;-3.76;75.92;99157.22;1696445;85;21006;-74
2022/01/19 00:38:28;;;;;;;20.37;6.20;;;;;;;-3.80;75.84;99148.42;1696232;85;21054;-74
2022/01/19 00:40:55;;;;;;;13.93;6.25;;;;;;;-3.82;76.16;99160.40;1717389;83;21426;-74
2022/01/19 00:43:23;;;;;;;16.05;6.65;;;;;;;-3.85;76.13;99166.32;1718320;83;21048;-74
2022/01/19 00:45:51;;;;;;;11.45;5.72;;;;;;;-3.91;75.97;99162.58;1671942;86;21145;-74
2022/01/19 00:48:17;;;;;;;11.35;5.45;;;;;;;-3.97;76.39;99159.28;1672089;86;21028;-74
2022/01/19 00:50:44;;;;;;;16.65;6.08;;;;;;;-3.95;76.21;99177.06;1685630;84;21015;-74
2022/01/19 00:53:10;;;;;;;13.22;6.10;;;;;;;-3.97;76.29;99182.59;1683677;85;21010;-74
2022/01/19 00:55:36;;;;;;;11.53;5.92;;;;;;;-3.96;76.39;99185.66;1683838;85;21517;-74
2022/01/19 00:58:03;;;;;;;13.05;6.20;;;;;;;-3.99;76.84;99181.22;1679501;85;21053;-75
2022/01/19 01:00:30;;;;;;;10.38;6.20;;;;;;;-3.98;76.84;99189.89;1689086;85;20997;-75
2022/01/19 01:02:56;;;;;;;9.38;5.20;;;;;;;-4.00;76.54;99194.98;1708437;84;20993;-75
2022/01/19 01:05:23;;;;;;;15.88;6.90;;;;;;;-4.00;77.01;99178.55;1708416;84;21113;-75
2022/01/19 01:07:50;;;;;;;13.80;6.20;;;;;;;-3.98;76.60;99180.40;1699820;83;21043;-74
2022/01/19 01:10:20;;;;;;;12.50;5.90;;;;;;;-4.00;76.35;99185.02;1691718;85;21090;-75
2022/01/19 01:12:50;;;;;;;12.07;6.05;;;;;;;-4.06;76.36;99184.73;1691688;85;21006;-74
2022/01/19 01:15:30;;;;;;;10.98;4.85;;;;;;;-4.07;76.41;99185.56;1691494;84;21491;-75
2022/01/19 01:20:32;;;;;;;14.70;5.72;;;;;;;-4.08;76.78;99189.84;1711278;83;21482;-75
2022/01/19 01:23:00;;;;;;;13.98;6.67;;;;;;;-4.11;76.61;99191.88;1667654;86;21024;-74
2022/01/19 01:25:27;;;;;;;15.75;6.53;;;;;;;-4.18;76.45;99188.52;1708031;83;21026;-74
2022/01/19 01:27:53;;;;;;;11.12;5.37;;;;;;;-4.23;76.38;99193.87;1688464;84;21034;-74
2022/01/19 01:30:21;;;;;;;14.35;6.17;;;;;;;-4.32;76.41;99185.66;1691317;85;21070;-74
2022/01/19 01:32:48;;;;;;;13.43;6.17;;;;;;;-4.39;76.69;99181.88;1691427;85;21113;-75
2022/01/19 01:35:15;;;;;;;12.68;6.10;;;;;;;-4.49;76.57;99185.69;1691075;85;21089;-74
2022/01/19 01:37:42;;;;;;;15.30;6.72;;;;;;;-4.57;76.66;99183.16;1696174;84;20982;-75
2022/01/19 01:40:13;;;;;;;13.65;5.80;;;;;;;-4.58;77.15;99180.05;1711134;83;20985;-75
2022/01/19 01:42:42;;;;;;;16.52;6.55;;;;;;;-4.62;77.03;99175.14;1667727;86;21020;-75
2022/01/19 01:45:13;;;;;;;15.38;6.87;;;;;;;-4.68;77.83;99175.74;1708315;83;20978;-74
2022/01/19 01:47:45;;;;;;;19.80;6.67;;;;;;;-4.70;77.21;99162.25;1703068;84;21070;-75
2022/01/19 01:55:25;;;;;;;14.85;6.50;;;;;;;-4.81;78.57;99184.55;1691611;85;21074;-72
2022/01/19 01:57:54;;;;;;;15.60;6.75;;;;;;;-4.83;78.77;99183.59;1679647;84;21431;-73
2022/01/19 02:00:25;;;;;;;10.72;6.00;;;;;;;-4.79;79.05;99197.56;1720731;83;21061;-72
2022/01/19 02:02:52;;;;;;;11.60;5.50;;;;;;;-4.74;79.71;99195.23;1720720;83;21040;-74
2022/01/19 02:05:22;;;;;;;13.65;6.00;;;;;;;-4.71;79.26;99188.51;1720719;83;21411;-74
2022/01/19 02:08:04;;;;;;;15.32;6.87;;;;;;;-4.65;78.83;99190.53;1719887;83;21120;-74
2022/01/19 02:10:55;;;;;;;13.80;6.15;;;;;;;-4.59;79.95;99190.83;1718619;83;21037;-73
2022/01/19 02:23:56;;;;;;;13.43;6.53;;;;;;;-4.43;78.43;99170.50;1720625;83;21474;-73
2022/01/19 02:26:31;;;;;;;11.65;6.53;;;;;;;-4.45;78.47;99166.92;1713200;83;21046;-73
2022/01/19 02:29:00;;;;;;;14.70;6.35;;;;;;;-4.44;78.59;99171.70;1705010;83;21446;-73
2022/01/19 02:42:12;;;;;;;12.35;5.87;;;;;;;-4.44;78.40;99168.70;1709028;84;20982;-75
2022/01/19 02:49:50;;;;;;;12.88;6.53;;;;;;;-4.42;78.01;99163.20;1696335;85;21046;-74
2022/01/19 02:52:19;;;;;;;17.70;6.72;;;;;;;-4.39;77.92;99163.77;1696343;85;21435;-74
2022/01/19 02:54:47;;;;;;;12.90;6.25;;;;;;;-4.37;77.73;99170.79;1703183;83;21092;-73
2022/01/19 02:57:14;;;;;;;13.75;6.17;;;;;;;-4.34;77.63;99163.97;1696138;85;21001;-73
2022/01/19 03:10:39;;;;;;;14.05;6.37;;;;;;;-4.27;76.91;99168.66;1691040;85;21476;-74
2022/01/19 03:13:06;;;;;;;13.55;7.65;;;;;;;-4.29;76.98;99168.97;1690761;85;21066;-73
2022/01/19 03:15:32;;;;;;;10.90;6.15;;;;;;;-4.31;76.79;99170.61;1703850;84;21012;-73
2022/01/19 03:18:00;;;;;;;16.97;6.72;;;;;;;-4.36;76.78;99167.81;1712910;84;21451;-74
2022/01/19 03:20:29;;;;;;;15.98;6.97;;;;;;;-4.43;77.04;99173.09;1712498;83;21392;-74
2022/01/19 03:25:23;;;;;;;14.63;6.72;;;;;;;-4.58;77.25;99170.61;1691073;85;21042;-74
2022/01/19 03:27:50;;;;;;;17.87;6.60;;;;;;;-4.68;77.37;99165.39;1690967;85;21022;-74
2022/01/19 03:30:21;;;;;;;17.25;6.53;;;;;;;-4.80;77.65;99154.02;1691031;85;21022;-74
2022/01/19 03:32:48;;;;;;;17.40;7.25;;;;;;;-4.95;78.00;99157.09;1694911;84;21117;-75
2022/01/19 03:35:15;;;;;;;13.75;6.60;;;;;;;-4.99;78.14;99159.06;1694534;84;21040;-74
2022/01/19 03:37:42;;;;;;;13.43;5.87;;;;;;;-5.04;78.18;99162.69;1712619;84;21077;-74
2022/01/19 03:40:10;;;;;;;20.20;6.75;;;;;;;-5.08;78.67;99162.05;1712677;84;21109;-74
2022/01/19 03:42:38;;;;;;;18.65;6.65;;;;;;;-5.10;78.97;99162.38;1711475;84;21016;-74
2022/01/19 03:45:07;;;;;;;17.12;7.25;;;;;;;-5.10;78.67;99160.70;1691002;84;21109;-74
2022/01/19 03:47:42;;;;;;;15.03;6.47;;;;;;;-5.12;78.83;99161.01;1691126;84;21074;-74
2022/01/19 03:50:04;;;;;;;18.35;6.90;;;;;;;-5.11;79.01;99165.36;1689601;84;21078;-73
2022/01/19 03:52:30;;;;;;;15.20;6.95;;;;;;;-5.09;78.75;99165.05;1663755;84;21491;-74
2022/01/19 03:54:57;;;;;;;14.20;6.65;;;;;;;-5.10;78.97;99164.97;1689164;84;21060;-74
2022/01/19 03:57:23;;;;;;;13.15;6.72;;;;;;;-5.10;79.00;99163.28;1697971;84;21152;-73
2022/01/19 03:59:50;;;;;;;18.82;7.22;;;;;;;-5.14;79.39;99157.47;1697602;84;21088;-73
2022/01/19 04:02:17;;;;;;;14.03;7.03;;;;;;;-5.16;79.19;99157.77;1697867;84;21005;-74
2022/01/19 04:04:56;;;;;;;14.73;6.53;;;;;;;-5.16;79.09;99164.23;1669777;84;21072;-74
2022/01/19 04:07:21;;;;;;;13.58;6.47;;;;;;;-5.20;79.30;99163.20;1714404;83;21565;-74
2022/01/19 04:09:49;;;;;;;14.65;6.80;;;;;;;-5.21;79.66;99156.64;1702008;84;21145;-74
2022/01/19 04:12:30;;;;;;;14.60;6.58;;;;;;;-5.21;79.38;99150.19;1706109;84;21032;-74
2022/01/19 04:14:46;;;;;;;17.00;6.80;;;;;;;-5.19;79.10;99148.59;1711491;83;21045;-74
2022/01/19 04:17:15;;;;;;;13.40;7.00;;;;;;;-5.18;78.73;99143.47;1698546;84;21072;-74
2022/01/19 04:19:48;;;;;;;16.23;6.85;;;;;;;-5.16;78.71;99139.68;1715212;83;20990;-74
2022/01/19 04:22:19;;;;;;;16.87;6.97;;;;;;;-5.22;79.17;99142.86;1679649;83;21317;-74
2022/01/19 04:24:48;;;;;;;15.13;7.20;;;;;;;-5.26;79.61;99138.72;1675498;86;21021;-74
2022/01/19 04:32:40;;;;;;;19.15;6.90;;;;;;;-5.37;79.68;99126.52;1704031;83;21005;-75
2022/01/19 04:35:05;;;;;;;16.10;7.28;;;;;;;-5.41;79.30;99124.61;1636809;87;21058;-74
2022/01/19 05:01:51;;;;;;;19.45;8.13;;;;;;;-5.24;79.51;99125.07;1672700;86;21032;-74
2022/01/19 05:04:46;;;;;;;19.17;8.23;;;;;;;-5.24;79.56;99122.91;1632106;86;21081;-73
2022/01/19 05:07:15;;;;;;;19.27;8.85;;;;;;;-5.25;79.43;99126.27;1665275;86;21083;-73
2022/01/19 05:14:49;;;;;;;22.35;8.78;;;;;;;-5.35;79.02;99111.58;1672344;86;21065;-74
2022/01/19 05:17:15;;;;;;;23.50;10.58;;;;;;;-5.41;79.42;99123.33;1671894;86;21066;-74
2022/01/19 05:19:41;;;;;;;29.20;11.88;;;;;;;-5.44;79.16;99123.63;1676319;85;21023;-74
2022/01/19 05:22:08;;;;;;;24.15;10.48;;;;;;;-5.48;79.27;99120.81;1691068;85;21006;-74
2022/01/19 05:24:46;;;;;;;30.92;10.68;;;;;;;-5.57;79.51;99119.52;1690016;85;21066;-74
2022/01/19 05:27:21;;;;;;;29.20;11.48;;;;;;;-5.65;79.66;99113.47;1678303;85;21093;-75
2022/01/19 05:29:46;;;;;;;24.90;11.00;;;;;;;-5.70;79.72;99111.91;1699037;84;21072;-75
2022/01/19 05:32:13;;;;;;;26.23;10.48;;;;;;;-5.74;80.00;99110.87;1693193;84;21083;-75
2022/01/19 05:34:40;;;;;;;30.72;12.28;;;;;;;-5.71;79.77;99109.75;1712591;83;21010;-75
2022/01/19 05:37:11;;;;;;;32.73;13.08;;;;;;;-5.68;79.70;99111.61;1711764;83;21512;-74
2022/01/19 05:39:56;;;;;;;34.90;13.30;;;;;;;-5.73;80.15;99116.94;1685750;83;21034;-75
2022/01/19 05:42:37;;;;;;;29.30;11.97;;;;;;;-5.70;79.66;99122.24;1694508;83;21058;-74
2022/01/19 05:45:05;;;;;;;29.90;11.57;;;;;;;-5.72;79.83;99126.03;1696506;85;21089;-75
2022/01/19 05:47:32;;;;;;;30.60;12.68;;;;;;;-5.68;79.58;99128.78;1696344;83;21014;-74
2022/01/19 05:49:59;;;;;;;31.77;11.60;;;;;;;-5.68;79.55;99130.98;1696136;85;21431;-74
2022/01/19 05:52:25;;;;;;;28.85;12.23;;;;;;;-5.66;79.61;99125.48;1696310;85;21395;-74
2022/01/19 05:54:52;;;;;;;29.65;11.03;;;;;;;-5.63;79.58;99128.62;1678205;85;21026;-74
2022/01/19 05:57:19;;;;;;;28.05;11.88;;;;;;;-5.62;79.68;99122.64;1696283;85;20966;-75
2022/01/19 05:59:48;;;;;;;28.57;12.85;;;;;;;-5.60;80.03;99125.80;1709983;83;21034;-74
2022/01/19 06:02:16;;;;;;;26.48;12.13;;;;;;;-5.58;79.50;99133.63;1662508;86;21049;-75
2022/01/19 06:04:43;;;;;;;27.27;11.38;;;;;;;-5.63;79.35;99137.28;1679122;85;21081;-74
2022/01/19 06:07:12;;;;;;;25.82;11.50;;;;;;;-5.70;79.08;99133.47;1606345;86;21741;-74
2022/01/19 06:12:12;;;;;;;30.90;12.53;;;;;;;-5.73;79.69;99134.59;1686176;85;21054;-75
2022/01/19 06:14:42;;;;;;;24.27;11.48;;;;;;;-5.74;79.43;99130.63;1686168;85;21078;-74
2022/01/19 06:17:12;;;;;;;24.10;10.65;;;;;;;-5.74;79.45;99131.91;1685992;85;21022;-74
2022/01/19 06:19:39;;;;;;;26.85;10.93;;;;;;;-5.78;79.70;99137.33;1699259;84;20974;-74
2022/01/19 06:22:08;;;;;;;24.63;10.68;;;;;;;-5.84;79.37;99121.12;1702431;84;21085;-73
2022/01/19 06:24:34;;;;;;;24.85;9.63;;;;;;;-5.84;79.75;99116.34;1702804;84;21010;-74
2022/01/19 06:27:01;;;;;;;19.85;9.50;;;;;;;-5.88;79.67;99114.02;1702613;84;21444;-75
2022/01/19 06:29:27;;;;;;;24.35;10.55;;;;;;;-5.84;79.67;99127.97;1689339;84;21079;-75
2022/01/19 06:31:53;;;;;;;30.30;11.50;;;;;;;-5.81;79.76;99134.98;1662924;85;21094;-74
2022/01/19 06:34:20;;;;;;;23.35;11.63;;;;;;;-5.80;79.63;99129.02;1679051;85;21429;-74
2022/01/19 06:37:05;;;;;;;32.67;12.30;;;;;;;-5.78;79.70;99141.20;1684332;85;21021;-74
2022/01/19 06:39:33;;;;;;;25.85;12.18;;;;;;;-5.78;79.68;99146.36;1691498;84;21049;-74
2022/01/19 06:42:05;;;;;;;27.05;12.93;;;;;;;-5.75;79.74;99137.50;1693375;84;21062;-73
2022/01/19 06:44:32;;;;;;;31.02;12.47;;;;;;;-5.72;79.62;99139.36;1693328;84;21439;-74
2022/01/19 06:46:59;;;;;;;30.00;12.07;;;;;;;-5.71;79.84;99139.84;1654462;86;21096;-74
2022/01/19 06:49:25;;;;;;;31.82;12.90;;;;;;;-5.65;79.83;99140.59;1667055;86;21005;-74
2022/01/19 06:51:52;;;;;;;26.57;12.25;;;;;;;-5.63;79.81;99145.02;1666859;86;21474;-75
2022/01/19 06:54:19;;;;;;;31.42;13.10;;;;;;;-5.64;79.62;99144.55;1666964;86;20962;-74
2022/01/19 06:56:47;;;;;;;23.22;12.07;;;;;;;-5.63;79.82;99143.73;1665367;86;21617;-73
2022/01/19 06:59:22;;;;;;;31.40;14.43;;;;;;;-5.65;79.72;99145.33;1665366;86;20993;-73
2022/01/19 07:01:50;;;;;;;34.27;15.88;;;;;;;-5.62;80.10;99142.92;1642095;86;21031;-74
2022/01/19 07:04:19;;;;;;;32.90;15.20;;;;;;;-5.63;79.78;99145.41;1669167;85;21498;-73
2022/01/19 07:06:46;;;;;;;30.90;14.83;;;;;;;-5.65;79.79;99155.66;1670968;86;21344;-74
2022/01/19 07:09:30;;;;;;;33.63;15.45;;;;;;;-5.68;79.94;99150.34;1669996;86;21096;-74
2022/01/19 07:11:57;;;;;;;32.08;14.87;;;;;;;-5.64;79.79;99146.23;1671588;86;21048;-74
2022/01/19 07:14:24;;;;;;;31.27;15.83;;;;;;;-5.62;79.71;99146.80;1671744;86;21449;-74
2022/01/19 07:16:53;;;;;;;33.28;15.70;;;;;;;-5.58;79.93;99147.84;1685377;85;21078;-75
2022/01/19 07:19:20;;;;;;;33.05;14.38;;;;;;;-5.52;79.94;99154.62;1726722;83;21044;-73
2022/01/19 07:21:47;;;;;;;31.90;14.35;;;;;;;-5.51;79.85;99148.67;1728028;83;21250;-73
2022/01/19 07:24:14;;;;;;;30.20;14.53;;;;;;;-5.50;79.75;99154.31;1727856;83;21072;-73
2022/01/19 07:26:41;;;;;;;30.43;14.58;;;;;;;-5.52;79.69;99157.20;1727976;83;21399;-73
2022/01/19 07:29:09;;;;;;;33.02;15.32;;;;;;;-5.51;79.90;99155.52;1698467;84;21060;-73
2022/01/19 07:31:36;;;;;;;30.50;15.40;;;;;;;-5.47;80.12;99157.07;1698484;84;21438;-73
2022/01/19 07:34:04;;;;;;;37.60;14.20;;;;;;;-5.40;80.06;99144.05;1698615;84;21064;-71
2022/01/19 07:36:35;;;;;;;27.73;12.50;;;;;;;-5.36;80.44;99141.24;1696371;84;21037;-72
2022/01/19 07:39:03;;;;;;;31.52;14.13;;;;;;;-5.32;80.21;99138.02;1727990;83;21028;-72
2022/01/19 07:41:32;;;;;;;31.75;14.28;;;;;;;-5.27;80.08;99139.14;1725557;83;21064;-73
2022/01/19 07:44:01;;;;;;;32.00;13.58;;;;;;;-5.22;79.83;99140.27;1699651;83;21022;-74
2022/01/19 07:46:46;;;;;;;28.42;13.85;;;;;;;-5.15;79.78;99141.45;1703185;84;21018;-74
2022/01/19 07:49:23;;;;;;;39.25;16.32;;;;;;;-5.10;79.55;99137.83;1612855;88;21104;-72
2022/01/19 07:51:54;;;;;;;35.55;15.80;;;;;;;-5.02;79.43;99134.34;1702553;84;21030;-73
2022/01/19 07:54:29;;;;;;;41.85;17.40;;;;;;;-4.95;79.41;99138.60;1716336;83;21415;-73
2022/01/19 07:57:00;;;;;;;40.03;17.30;;;;;;;-4.86;79.37;99134.72;1719933;83;21013;-73
2022/01/19 07:59:45;;;;;;;32.98;15.98;;;;;;;-4.78;79.32;99135.58;1707120;83;21001;-74
2022/01/19 08:02:13;;;;;;;37.15;16.15;;;;;;;-4.66;79.30;99128.84;1673211;84;21024;-75
2022/01/19 08:04:59;;;;;;;32.58;15.00;;;;;;;-4.56;78.90;99117.26;1671807;85;21415;-77
2022/01/19 08:07:27;;;;;;;32.98;13.83;;;;;;;-4.46;78.93;99110.81;1679963;85;21346;-75
2022/01/19 08:09:54;;;;;;;29.32;14.83;;;;;;;-4.35;78.69;99110.44;1682698;85;21620;-75
2022/01/19 08:12:22;;;;;;;36.35;15.93;;;;;;;-4.27;78.47;99089.70;1683920;84;21013;-74
2022/01/19 08:14:52;;;;;;;29.82;13.20;;;;;;;-4.21;77.73;99088.69;1685951;85;21038;-75
2022/01/19 08:17:21;;;;;;;38.55;15.48;;;;;;;-4.11;76.78;99080.53;1685150;85;20995;-75
2022/01/19 08:19:47;;;;;;;36.17;14.85;;;;;;;-4.03;76.78;99075.71;1685951;85;21523;-74
2022/01/19 08:22:15;;;;;;;27.52;13.93;;;;;;;-3.94;77.52;99070.48;1685907;84;21475;-74
2022/01/19 08:24:43;;;;;;;28.30;12.85;;;;;;;-3.85;77.29;99067.89;1680559;85;21104;-74
2022/01/19 08:27:10;;;;;;;28.65;13.62;;;;;;;-3.81;76.36;99059.88;1683352;85;21498;-74
2022/01/19 08:29:39;;;;;;;31.55;15.05;;;;;;;-3.74;75.72;99061.91;1682618;85;21056;-75
2022/01/19 08:32:08;;;;;;;31.55;14.70;;;;;;;-3.69;74.48;99054.36;1682740;85;21077;-75
2022/01/19 08:34:43;;;;;;;38.38;16.67;;;;;;;-3.60;75.74;99049.98;1673388;84;21502;-75
2022/01/19 08:37:15;;;;;;;34.65;15.60;;;;;;;-3.52;74.65;99059.00;1646300;84;21070;-75
2022/01/19 08:39:44;;;;;;;40.80;18.67;;;;;;;-3.47;74.07;99057.48;1702366;84;21030;-75
2022/01/19 08:42:11;;;;;;;35.28;19.15;;;;;;;-3.39;74.41;99055.23;1701829;84;21464;-75
2022/01/19 08:44:39;;;;;;;38.48;17.70;;;;;;;-3.28;75.02;99059.98;1684882;84;21118;-75
2022/01/19 08:47:10;;;;;;;32.08;16.12;;;;;;;-3.20;75.04;99061.21;1678517;85;21487;-75
2022/01/19 08:49:37;;;;;;;36.83;17.52;;;;;;;-3.12;74.22;99054.63;1683247;85;21025;-75
2022/01/19 08:52:22;;;;;;;30.12;15.72;;;;;;;-3.06;74.72;99063.95;1695634;84;21470;-75
2022/01/19 08:54:50;;;;;;;37.30;14.90;;;;;;;-2.95;73.92;99057.06;1701781;84;21026;-75
2022/01/19 08:57:19;;;;;;;30.40;15.20;;;;;;;-2.88;73.09;99054.28;1702292;84;20958;-75
2022/01/19 08:59:45;;;;;;;31.77;14.90;;;;;;;-2.78;74.34;99053.87;1702411;84;21033;-75
2022/01/19 09:02:12;;;;;;;32.55;13.85;;;;;;;-2.67;74.55;99053.88;1709634;82;21071;-75
2022/01/19 09:04:39;;;;;;;27.65;13.03;;;;;;;-2.59;74.40;99047.70;1677188;84;22137;-74
2022/01/19 09:07:05;;;;;;;50.17;23.42;;;;;;;-2.49;74.38;99037.69;1669621;86;21096;-75
2022/01/19 09:09:32;;;;;;;31.52;13.85;;;;;;;-2.40;74.39;99031.56;1653117;86;21017;-74
2022/01/19 09:11:58;;;;;;;26.60;11.73;;;;;;;-2.32;74.57;99020.17;1650380;86;21044;-75
2022/01/19 09:14:24;;;;;;;27.60;12.58;;;;;;;-2.19;74.32;99030.22;1670241;86;21413;-75
2022/01/19 09:16:51;;;;;;;27.50;11.97;;;;;;;-2.09;73.84;99030.53;1697412;84;21028;-74
2022/01/19 09:19:19;;;;;;;28.87;12.60;;;;;;;-2.00;73.81;99027.89;1683767;85;20975;-74
2022/01/19 09:21:48;;;;;;;23.27;12.15;;;;;;;-1.89;73.42;99021.80;1690614;83;21053;-75
2022/01/19 09:24:15;;;;;;;23.73;11.25;;;;;;;-1.77;73.16;99025.27;1676426;86;21385;-75
2022/01/19 09:26:43;;;;;;;26.65;11.48;;;;;;;-1.69;71.38;99027.24;1673958;86;21427;-74
2022/01/19 09:29:10;;;;;;;20.43;10.65;;;;;;;-1.60;71.56;99024.58;1656684;86;21001;-76
2022/01/19 09:31:39;;;;;;;19.85;10.50;;;;;;;-1.52;72.11;99022.65;1690964;84;21412;-73
2022/01/19 09:34:09;;;;;;;20.90;10.28;;;;;;;-1.41;72.08;99022.61;1674245;84;21050;-76
2022/01/19 09:36:44;;;;;;;20.15;9.75;;;;;;;-1.34;68.56;99019.41;1699089;84;21425;-75
2022/01/19 09:39:07;;;;;;;20.82;10.23;;;;;;;-1.26;69.84;99014.47;1699030;83;20978;-74
2022/01/19 09:41:34;;;;;;;25.12;9.75;;;;;;;-1.11;70.12;99010.62;1720807;83;21064;-74
2022/01/19 09:44:00;;;;;;;19.05;9.73;;;;;;;-1.01;69.98;99011.80;1703548;83;20972;-74
2022/01/19 09:46:29;;;;;;;20.57;9.93;;;;;;;-0.88;69.46;99015.72;1693057;84;21053;-74
2022/01/19 09:48:56;;;;;;;21.15;10.23;;;;;;;-0.77;70.02;99006.53;1698816;83;20960;-76
2022/01/19 09:51:23;;;;;;;16.57;8.33;;;;;;;-0.66;70.19;99000.38;1702572;84;21071;-75
2022/01/19 09:53:49;;;;;;;19.62;9.55;;;;;;;-0.55;67.15;98999.38;1692979;84;20994;-75
2022/01/19 09:56:18;;;;;;;15.65;9.05;;;;;;;-0.41;68.30;98998.53;1699868;84;21008;-76
2022/01/19 09:58:46;;;;;;;18.60;9.40;;;;;;;-0.35;66.09;98992.20;1702917;83;20973;-76
2022/01/19 10:01:22;;;;;;;16.37;7.80;;;;;;;-0.25;67.43;98977.72;1702208;83;21164;-76
2022/01/19 10:03:50;;;;;;;15.80;7.28;;;;;;;-0.15;65.06;98981.49;1721938;83;21476;-76
2022/01/19 10:06:23;;;;;;;15.68;7.75;;;;;;;-0.07;66.54;98977.80;1701290;83;21092;-76
2022/01/19 10:08:59;;;;;;;21.10;9.10;;;;;;;0.01;63.24;98966.30;1689388;84;21423;-76
2022/01/19 10:16:58;;;;;;;20.70;8.63;;;;;;;-0.01;61.36;98964.53;1679442;85;21419;-76
2022/01/19 10:17:10;;;;;;;18.12;7.87;;;;;;;0.18;65.41;98956.34;1687505;84;21048;-76
2022/01/19 10:19:44;;;;;;;16.05;6.70;;;;;;;0.25;61.90;98963.07;1643693;86;21033;-75
2022/01/19 10:22:18;;;;;;;15.55;7.40;;;;;;;0.33;64.06;98961.11;1666482;85;21065;-75
2022/01/19 10:24:52;;;;;;;15.30;7.40;;;;;;;0.39;62.99;98950.84;1669299;86;21012;-75
2022/01/19 10:27:32;;;;;;;19.27;7.55;;;;;;;0.45;61.77;98941.86;1679148;85;21052;-77
2022/01/19 10:30:10;;;;;;;11.78;5.25;;;;;;;0.51;62.51;98946.38;1682862;85;20997;-75
2022/01/19 10:32:55;;;;;;;8.73;4.28;;;;;;;0.55;56.98;98936.48;1696351;85;21002;-75
2022/01/19 10:35:40;;;;;;;10.80;4.12;;;;;;;0.56;55.03;98933.02;1680341;85;21426;-75
2022/01/19 10:38:28;;;;;;;9.20;3.92;;;;;;;0.63;57.36;98934.93;1689334;84;21462;-75
2022/01/19 10:41:03;;;;;;;9.70;4.37;;;;;;;0.73;56.25;98931.25;1694173;84;20965;-75
2022/01/19 10:43:42;;;;;;;11.35;5.00;;;;;;;0.86;58.06;98925.91;1623957;87;21096;-76
2022/01/19 10:46:31;;;;;;;10.25;5.22;;;;;;;0.91;57.85;98925.60;1680612;85;21457;-76
2022/01/19 10:49:05;;;;;;;11.43;5.72;;;;;;;0.97;56.25;98922.27;1681776;84;21014;-75
2022/01/19 10:51:37;;;;;;;9.98;5.40;;;;;;;0.96;56.41;98917.49;1679256;84;21028;-75
2022/01/19 10:54:19;;;;;;;11.22;5.08;;;;;;;0.99;56.01;98908.41;1643273;86;21040;-75
2022/01/19 10:56:52;;;;;;;11.20;4.97;;;;;;;1.34;55.83;98902.25;1695919;85;20990;-76
2022/01/19 10:59:19;;;;;;;9.28;5.03;;;;;;;2.53;56.84;98894.09;1698245;83;21035;-76
2022/01/19 11:01:50;;;;;;;8.73;4.22;;;;;;;3.90;54.60;98891.70;1675094;84;21080;-75
2022/01/19 11:04:37;;;;;;;8.50;4.20;;;;;;;4.80;44.89;98880.33;1701132;83;21130;-75
2022/01/19 11:07:09;;;;;;;9.60;4.80;;;;;;;5.76;47.80;98880.03;1684040;84;21422;-75
2022/01/19 11:10:00;;;;;;;8.55;4.58;;;;;;;6.86;48.43;98871.06;1688267;83;21008;-75
2022/01/19 11:12:30;;;;;;;8.50;4.37;;;;;;;7.64;46.43;98873.56;1671533;85;21009;-74
2022/01/19 11:14:57;;;;;;;9.55;4.45;;;;;;;8.01;39.53;98868.56;1689675;85;20946;-75
2022/01/19 11:17:23;;;;;;;7.45;4.08;;;;;;;8.89;38.23;98868.88;1695990;85;21063;-76
2022/01/19 11:19:50;;;;;;;7.65;3.58;;;;;;;9.60;42.54;98868.61;1698404;83;21451;-75
2022/01/19 11:22:37;;;;;;;7.83;4.10;;;;;;;10.09;38.65;98853.00;1696138;83;21010;-75
2022/01/19 11:25:33;;;;;;;8.13;4.40;;;;;;;10.26;34.00;98845.29;1697573;84;20994;-75
2022/01/19 11:28:00;;;;;;;5.35;3.42;;;;;;;10.54;39.08;98849.74;1706087;83;21108;-75
2022/01/19 11:30:33;;;;;;;6.28;3.87;;;;;;;10.65;34.07;98841.63;1664534;86;21103;-75
2022/01/19 11:33:26;;;;;;;9.30;3.98;;;;;;;11.08;32.68;98841.34;1643365;87;20964;-76
2022/01/19 11:36:08;;;;;;;7.03;3.67;;;;;;;11.81;37.26;98840.83;1650543;85;21033;-76
2022/01/19 11:38:40;;;;;;;7.95;4.20;;;;;;;12.34;34.48;98839.25;1652325;83;20985;-76
2022/01/19 11:41:17;;;;;;;6.35;3.45;;;;;;;12.34;32.09;98828.61;1695198;83;21034;-76
2022/01/19 11:43:58;;;;;;;5.30;3.40;;;;;;;11.78;32.11;98831.15;1646875;86;21029;-76
2022/01/19 11:46:39;;;;;;;5.78;3.70;;;;;;;12.26;33.06;98812.84;1652387;84;21014;-75
2022/01/19 11:49:07;;;;;;;5.33;3.22;;;;;;;13.22;31.69;98803.84;1691477;84;21042;-75
2022/01/19 11:51:38;;;;;;;7.03;3.37;;;;;;;13.15;28.06;98810.66;1678670;84;21056;-74
2022/01/19 11:54:31;;;;;;;5.33;3.55;;;;;;;13.05;29.44;98803.84;1691978;84;20990;-75
2022/01/19 11:57:08;;;;;;;8.30;3.40;;;;;;;13.53;30.19;98810.54;1699812;83;21026;-75
2022/01/19 11:59:57;;;;;;;7.15;3.33;;;;;;;13.85;28.12;98800.75;1648757;86;21020;-76
2022/01/19 12:02:36;;;;;;;6.53;3.08;;;;;;;14.41;29.77;98802.61;1684211;84;20976;-76
2022/01/19 12:05:08;;;;;;;6.22;3.47;;;;;;;14.25;25.27;98800.44;1671075;85;21009;-74
2022/01/19 12:08:03;;;;;;;5.83;3.40;;;;;;;13.50;26.07;98801.78;1680534;85;21017;-76
2022/01/19 12:10:43;;;;;;;7.30;3.12;;;;;;;13.09;24.66;98804.63;1655975;86;21009;-75
2022/01/19 12:13:44;;;;;;;4.80;3.27;;;;;;;12.56;25.21;98806.85;1647733;87;21467;-75
2022/01/19 12:19:14;;;;;;;6.85;3.95;;;;;;;13.76;26.75;98786.37;1662726;85;21014;-76
2022/01/19 12:22:00;;;;;;;7.80;3.12;;;;;;;13.83;28.84;98788.39;1632070;87;21053;-77
2022/01/19 12:24:56;;;;;;;105.50;58.17;;;;;;;13.65;29.01;98779.13;1657171;85;22175;-80
2022/01/19 12:27:28;;;;;;;5.45;3.25;;;;;;;13.05;28.71;98790.54;1687766;85;21454;-80
2022/01/19 12:30:13;;;;;;;7.55;3.35;;;;;;;12.72;28.81;98788.73;1662975;85;21001;-81
2022/01/19 12:32:51;;;;;;;6.53;3.37;;;;;;;11.99;28.84;98794.40;1678439;85;20982;-81
2022/01/19 12:35:35;;;;;;;6.67;3.55;;;;;;;11.73;30.58;98796.73;1674864;84;21332;-80
2022/01/19 12:38:07;;;;;;;4.85;3.72;;;;;;;11.28;29.81;98788.79;1654860;85;21399;-80
2022/01/19 12:40:42;;;;;;;7.67;3.40;;;;;;;10.24;29.88;98787.02;1686224;85;21005;-82
2022/01/19 12:43:16;;;;;;;6.95;3.30;;;;;;;8.94;30.13;98785.58;1687958;85;20983;-80
2022/01/19 12:45:51;;;;;;;8.35;3.27;;;;;;;8.13;32.37;98780.92;1695972;84;21085;-81
2022/01/19 12:48:37;;;;;;;7.67;3.98;;;;;;;8.13;34.33;98779.17;1722854;83;21020;-81
2022/01/19 12:51:10;;;;;;;5.28;3.30;;;;;;;8.40;33.40;98771.95;1713236;83;21032;-81
2022/01/19 12:53:42;;;;;;;5.92;3.00;;;;;;;7.10;33.61;98765.63;1707479;83;21513;-82
2022/01/19 12:56:10;;;;;;;5.72;3.17;;;;;;;6.59;35.30;98758.69;1707714;83;20993;-81
2022/01/19 12:58:39;;;;;;;7.00;4.00;;;;;;;6.03;35.66;98762.64;1697705;84;20998;-82
2022/01/19 13:01:09;;;;;;;7.70;3.02;;;;;;;5.60;37.21;98769.52;1694486;83;21428;-81
2022/01/19 13:03:40;;;;;;;6.47;3.25;;;;;;;5.36;37.56;98765.93;1700174;84;21012;-82
2022/01/19 13:06:13;;;;;;;9.00;4.53;;;;;;;5.13;38.28;98764.09;1705857;83;21005;-82
2022/01/19 13:09:12;;;;;;;7.55;3.62;;;;;;;5.03;38.88;98762.30;1705918;83;21382;-82
2022/01/19 13:11:30;;;;;;;7.70;3.58;;;;;;;4.91;39.47;98766.16;1697458;84;21479;-81
2022/01/19 13:14:04;;;;;;;6.67;3.30;;;;;;;4.71;39.28;98773.05;1704063;83;21104;-80